createdAt,value
2022-09-01T03:01:06.283Z,91.50
2022-09-01T03:03:36.288Z,91.80
2022-09-01T03:06:09.153Z,91.80
2022-09-01T03:08:39.553Z,91.90
2022-09-01T03:11:13.010Z,92.00
2022-09-01T03:13:43.034Z,92.20
2022-09-01T03:16:13.342Z,92.10
2022-09-01T03:18:42.790Z,92.20
2022-09-01T03:21:14.967Z,92.40
2022-09-01T03:23:44.755Z,92.60
2022-09-01T03:26:13.548Z,92.90
2022-09-01T03:28:41.807Z,92.80
2022-09-01T03:31:11.973Z,92.90
2022-09-01T03:33:40.187Z,92.90
2022-09-01T03:36:19.122Z,93.00
2022-09-01T03:38:49.089Z,93.10
2022-09-01T03:41:21.560Z,93.20
2022-09-01T03:43:51.193Z,93.30
2022-09-01T03:46:21.451Z,93.50
2022-09-01T03:48:50.870Z,93.50
2022-09-01T03:51:22.818Z,93.60
2022-09-01T03:53:54.348Z,93.80
2022-09-01T03:56:24.584Z,94.00
2022-09-01T03:58:53.366Z,94.50
2022-09-01T04:01:23.085Z,94.50
2022-09-01T04:03:52.870Z,94.40
2022-09-01T04:06:25.971Z,94.50
2022-09-01T04:09:03.157Z,94.70
2022-09-01T04:11:35.051Z,94.80
2022-09-01T04:14:03.042Z,94.80
2022-09-01T04:16:53.703Z,94.90
2022-09-01T04:19:26.327Z,95.50
2022-09-01T04:21:57.055Z,95.70
2022-09-01T04:24:28.946Z,95.80
2022-09-01T04:27:00.099Z,95.70
2022-09-01T04:29:28.200Z,96.10
2022-09-01T04:32:03.548Z,96.40
2022-09-01T04:34:37.448Z,96.40
2022-09-01T04:37:09.745Z,96.70
2022-09-01T04:39:39.098Z,96.80
2022-09-01T04:42:09.310Z,96.80
2022-09-01T04:44:39.561Z,97.20
2022-09-01T04:47:10.825Z,97.30
2022-09-01T04:49:38.941Z,97.80
2022-09-01T04:52:06.940Z,98.10
2022-09-01T04:54:37.334Z,98.20
2022-09-01T04:57:07.482Z,98.30
2022-09-01T04:59:38.119Z,98.50
2022-09-01T05:02:07.796Z,98.70
2022-09-01T05:04:40.220Z,99.10
2022-09-01T05:07:08.468Z,99.00
2022-09-01T05:09:39.826Z,99.20
2022-09-01T05:12:27.596Z,99.30
2022-09-01T05:14:56.033Z,99.30
2022-09-01T05:17:26.016Z,99.40
2022-09-01T05:19:56.919Z,99.50
2022-09-01T05:22:25.784Z,99.50
2022-09-01T05:25:03.688Z,99.90
2022-09-01T05:27:32.389Z,99.90
2022-09-01T05:30:00.681Z,99.90
2022-09-01T05:32:28.663Z,99.90
2022-09-01T05:34:58.621Z,99.90
2022-09-01T05:37:28.761Z,99.90
2022-09-01T05:39:57.694Z,99.90
2022-09-01T05:42:27.526Z,99.90
2022-09-01T05:44:55.523Z,99.90
2022-09-01T05:47:26.269Z,99.90
2022-09-01T05:49:55.254Z,99.90
2022-09-01T05:52:26.320Z,99.90
2022-09-01T05:54:59.984Z,99.90
2022-09-01T05:57:34.664Z,99.90
2022-09-01T06:00:10.933Z,99.90
2022-09-01T06:02:41.043Z,99.90
2022-09-01T06:05:11.456Z,99.90
2022-09-01T06:07:42.747Z,99.90
2022-09-01T06:10:12.910Z,99.90
2022-09-01T06:12:41.115Z,99.90
2022-09-01T06:15:15.975Z,99.90
2022-09-01T06:17:47.052Z,99.90
2022-09-01T06:20:18.164Z,99.90
2022-09-01T06:22:47.686Z,99.90
2022-09-01T06:25:18.604Z,99.70
2022-09-01T06:27:48.934Z,99.20
2022-09-01T06:30:23.930Z,98.90
2022-09-01T06:32:57.499Z,98.90
2022-09-01T06:35:29.860Z,98.50
2022-09-01T06:38:01.812Z,98.70
2022-09-01T06:40:42.685Z,98.50
2022-09-01T06:43:16.122Z,97.80
2022-09-01T06:45:54.203Z,97.90
2022-09-01T06:48:24.163Z,97.60
2022-09-01T06:53:51.139Z,97.70
2022-09-01T06:56:19.599Z,97.10
2022-09-01T06:58:48.212Z,96.90
2022-09-01T07:01:19.605Z,96.50
2022-09-01T07:03:51.866Z,96.70
2022-09-01T07:10:18.157Z,95.80
2022-09-01T07:13:07.366Z,96.00
2022-09-01T07:18:30.908Z,95.60
2022-09-01T07:21:06.934Z,95.10
2022-09-01T07:23:47.404Z,94.80
2022-09-01T07:26:29.023Z,95.00
2022-09-01T07:29:01.783Z,94.60
2022-09-01T07:43:09.469Z,93.90
2022-09-01T07:45:59.743Z,93.90
2022-09-01T07:49:01.260Z,93.70
2022-09-01T07:51:37.766Z,93.80
2022-09-01T07:54:07.371Z,93.40
2022-09-01T07:56:39.785Z,93.40
2022-09-01T07:59:14.963Z,93.30
2022-09-01T08:01:55.706Z,93.50
2022-09-01T08:04:23.750Z,93.40
2022-09-01T08:06:52.196Z,92.50
2022-09-01T08:09:37.012Z,92.80
2022-09-01T08:12:08.741Z,92.40
2022-09-01T08:17:58.044Z,92.00
2022-09-01T08:20:30.399Z,92.10
2022-09-01T08:23:26.797Z,92.00
2022-09-01T08:25:55.634Z,92.30
2022-09-01T08:28:27.483Z,92.40
2022-09-01T08:31:00.021Z,92.00
2022-09-01T08:33:29.407Z,92.10
2022-09-01T08:35:57.543Z,91.60
2022-09-01T08:38:27.043Z,91.40
2022-09-01T08:40:57.726Z,91.70
2022-09-01T08:43:48.068Z,91.50
2022-09-01T08:46:23.170Z,91.50
2022-09-01T08:52:15.246Z,91.40
2022-09-01T08:54:46.894Z,90.80
2022-09-01T08:57:18.773Z,91.00
2022-09-01T09:00:18.107Z,90.80
2022-09-01T09:02:58.673Z,90.90
2022-09-01T09:05:36.821Z,90.70
2022-09-01T09:08:33.344Z,90.30
2022-09-01T09:11:04.196Z,89.90
2022-09-01T09:13:42.310Z,90.10
2022-09-01T09:16:17.053Z,90.40
2022-09-01T09:18:57.524Z,90.40
2022-09-01T09:21:30.087Z,88.70
2022-09-01T09:24:04.270Z,88.40
2022-09-01T09:26:42.726Z,88.70
2022-09-01T09:29:11.516Z,87.90
2022-09-01T09:31:45.929Z,88.60
2022-09-01T09:34:33.208Z,88.20
2022-09-01T09:37:20.543Z,87.80
2022-09-01T09:40:05.718Z,87.70
2022-09-01T09:42:36.526Z,86.20
2022-09-01T09:45:05.492Z,86.60
2022-09-01T09:47:44.021Z,85.60
2022-09-01T09:50:22.877Z,86.00
2022-09-01T09:52:52.237Z,86.00
2022-09-01T09:55:25.186Z,86.00
2022-09-01T09:57:57.204Z,84.50
2022-09-01T10:00:28.736Z,83.60
2022-09-01T10:03:04.604Z,82.30
2022-09-01T10:05:43.247Z,81.50
2022-09-01T10:08:14.900Z,80.50
2022-09-01T10:10:45.750Z,80.90
2022-09-01T10:13:28.079Z,81.50
2022-09-01T10:15:57.996Z,81.80
2022-09-01T10:18:31.588Z,81.30
2022-09-01T10:21:04.316Z,81.40
2022-09-01T10:23:36.118Z,80.70
2022-09-01T10:26:10.373Z,81.10
2022-09-01T10:28:49.503Z,79.50
2022-09-01T10:31:18.300Z,79.90
2022-09-01T10:33:46.614Z,79.80
2022-09-01T10:36:17.890Z,78.80
2022-09-01T10:38:53.961Z,77.90
2022-09-01T10:41:59.682Z,77.40
2022-09-01T10:44:33.974Z,77.50
2022-09-01T10:47:06.471Z,77.00
2022-09-01T10:50:07.453Z,76.10
2022-09-01T10:52:58.865Z,76.50
2022-09-01T10:55:35.185Z,74.00
2022-09-01T11:01:21.572Z,74.90
2022-09-01T11:04:02.417Z,73.90
2022-09-01T11:07:13.884Z,73.30
2022-09-01T11:09:45.640Z,73.70
2022-09-01T11:12:32.366Z,72.80
2022-09-01T11:15:02.982Z,72.40
2022-09-01T11:17:33.937Z,73.00
2022-09-01T11:20:08.664Z,73.60
2022-09-01T11:22:40.225Z,71.10
2022-09-01T11:25:39.478Z,71.80
2022-09-01T11:28:39.882Z,70.70
2022-09-01T11:31:39.217Z,71.10
2022-09-01T11:34:17.586Z,69.60
2022-09-01T11:36:52.970Z,69.90
2022-09-01T11:39:41.497Z,69.00
2022-09-01T11:42:18.925Z,67.40
2022-09-01T11:44:52.194Z,67.00
2022-09-01T11:47:24.341Z,65.40
2022-09-01T11:49:56.005Z,63.70
2022-09-01T11:52:27.124Z,63.80
2022-09-01T11:54:55.475Z,63.30
2022-09-01T11:57:28.194Z,63.00
2022-09-01T11:59:57.501Z,63.80
2022-09-01T12:02:28.356Z,64.30
2022-09-01T12:04:57.166Z,64.10
2022-09-01T12:07:36.575Z,63.50
2022-09-01T12:10:08.446Z,63.10
2022-09-01T12:12:39.706Z,62.90
2022-09-01T12:15:11.489Z,61.60
2022-09-01T12:17:41.753Z,59.40
2022-09-01T12:20:28.849Z,58.40
2022-09-01T12:22:57.978Z,57.80
2022-09-01T12:25:28.051Z,56.60
2022-09-01T12:27:58.203Z,56.00
2022-09-01T12:30:26.962Z,55.70
2022-09-01T12:33:22.908Z,56.60
2022-09-01T12:35:43.815Z,57.60
2022-09-01T12:38:23.962Z,58.00
2022-09-01T12:40:54.680Z,59.10
2022-09-01T12:43:37.083Z,59.30
2022-09-01T12:46:06.405Z,59.90
2022-09-01T12:48:35.998Z,60.00
2022-09-01T12:51:09.432Z,59.90
2022-09-01T12:53:37.666Z,59.60
2022-09-01T12:56:24.542Z,60.00
2022-09-01T12:59:08.634Z,59.60
2022-09-01T13:01:43.408Z,60.40
2022-09-01T13:04:24.901Z,60.20
2022-09-01T13:06:53.923Z,60.80
2022-09-01T13:09:21.802Z,61.10
2022-09-01T13:12:06.964Z,60.80
2022-09-01T13:14:36.683Z,60.00
2022-09-01T13:17:04.546Z,60.00
2022-09-01T13:19:32.597Z,59.50
2022-09-01T13:22:00.461Z,58.20
2022-09-01T13:24:31.310Z,58.50
2022-09-01T13:29:49.417Z,59.40
2022-09-01T13:32:20.513Z,59.40
2022-09-01T13:34:50.668Z,58.90
2022-09-01T13:37:19.875Z,59.00
2022-09-01T13:39:48.530Z,58.00
2022-09-01T13:42:16.728Z,57.40
2022-09-01T13:44:44.906Z,54.50
2022-09-01T13:47:30.530Z,52.40
2022-09-01T13:50:09.203Z,51.90
2022-09-01T13:52:39.017Z,49.90
2022-09-01T13:55:08.367Z,48.50
2022-09-01T13:57:36.973Z,47.80
2022-09-01T14:00:10.630Z,47.60
2022-09-01T14:02:40.390Z,46.40
2022-09-01T14:05:09.540Z,46.50
2022-09-01T14:07:40.586Z,46.90
2022-09-01T14:10:09.612Z,47.30
2022-09-01T14:12:37.551Z,47.20
2022-09-01T14:15:12.045Z,47.10
2022-09-01T14:17:44.604Z,46.50
2022-09-01T14:20:14.564Z,46.10
2022-09-01T14:22:42.511Z,45.20
2022-09-01T14:25:12.034Z,45.30
2022-09-01T14:27:41.010Z,45.30
2022-09-01T14:30:12.078Z,46.10
2022-09-01T14:32:40.153Z,45.80
2022-09-01T14:35:10.352Z,46.30
2022-09-01T14:37:38.397Z,47.00
2022-09-01T14:40:08.453Z,47.90
2022-09-01T14:42:37.213Z,47.10
2022-09-01T14:45:05.788Z,46.00
2022-09-01T14:47:33.661Z,45.30
2022-09-01T14:50:02.998Z,45.10
2022-09-01T14:52:32.211Z,44.80
2022-09-01T14:55:00.120Z,45.40
2022-09-01T14:57:30.244Z,44.90
2022-09-01T14:59:59.954Z,45.20
2022-09-01T15:02:29.133Z,45.00
2022-09-01T15:04:57.560Z,44.50
2022-09-01T15:07:25.540Z,43.60
2022-09-01T15:09:54.761Z,43.50
2022-09-01T15:12:22.659Z,43.10
2022-09-01T15:14:50.689Z,43.90
2022-09-01T15:17:18.627Z,43.70
2022-09-01T15:19:46.751Z,44.20
2022-09-01T15:22:15.678Z,44.70
2022-09-01T15:24:43.565Z,45.30
2022-09-01T15:27:12.827Z,45.60
2022-09-01T15:29:46.031Z,46.20
2022-09-01T15:32:27.460Z,46.20
2022-09-01T15:34:56.089Z,46.50
2022-09-01T15:37:23.955Z,47.10
2022-09-01T15:39:51.805Z,47.10
2022-09-01T15:42:21.770Z,47.20
2022-09-01T15:44:49.652Z,47.70
2022-09-01T15:47:17.667Z,47.60
2022-09-01T15:49:45.905Z,48.40
2022-09-01T15:52:15.225Z,48.70
2022-09-01T15:54:43.079Z,48.60
2022-09-01T15:57:11.979Z,49.00
2022-09-01T15:59:43.001Z,48.90
2022-09-01T16:02:15.197Z,49.40
2022-09-01T16:04:43.084Z,49.40
2022-09-01T16:07:10.943Z,50.00
2022-09-01T16:09:38.824Z,49.70
2022-09-01T16:12:08.036Z,49.70
2022-09-01T16:14:35.902Z,49.70
2022-09-01T16:17:11.073Z,49.80
2022-09-01T16:19:48.998Z,50.30
2022-09-01T16:22:23.828Z,50.30
2022-09-01T16:24:54.128Z,50.10
2022-09-01T16:27:24.356Z,50.20
2022-09-01T16:29:56.605Z,50.40
2022-09-01T16:32:27.045Z,50.50
2022-09-01T16:34:54.949Z,50.60
2022-09-01T16:37:35.871Z,50.30
2022-09-01T16:40:15.876Z,50.70
2022-09-01T16:42:51.822Z,50.40
2022-09-01T16:45:43.243Z,50.70
2022-09-01T16:48:20.569Z,50.00
2022-09-01T16:50:56.169Z,50.50
2022-09-01T16:53:39.768Z,50.00
2022-09-01T16:56:11.204Z,50.20
2022-09-01T16:58:47.081Z,50.70
2022-09-01T17:01:26.795Z,50.90
2022-09-01T17:04:17.068Z,50.90
2022-09-01T17:06:56.458Z,51.00
2022-09-01T17:09:32.568Z,51.00
2022-09-01T17:12:27.599Z,51.30
2022-09-01T17:14:59.562Z,51.20
2022-09-01T17:17:44.654Z,51.50
2022-09-01T17:20:14.360Z,51.00
2022-09-01T17:22:50.378Z,51.00
2022-09-01T17:25:28.622Z,51.10
2022-09-01T17:28:00.785Z,51.30
2022-09-01T17:30:31.826Z,51.20
2022-09-01T17:33:18.326Z,51.40
2022-09-01T17:36:03.714Z,51.40
2022-09-01T17:38:40.032Z,51.30
2022-09-01T17:41:23.094Z,51.80
2022-09-01T17:43:59.558Z,51.80
2022-09-01T17:46:42.107Z,51.60
2022-09-01T17:49:16.827Z,51.90
2022-09-01T17:51:58.957Z,52.00
2022-09-01T17:54:36.766Z,52.40
2022-09-01T17:57:13.395Z,52.60
2022-09-01T17:59:47.385Z,52.60
2022-09-01T18:02:48.015Z,52.30
2022-09-01T18:05:19.556Z,52.70
2022-09-01T18:08:12.893Z,52.80
2022-09-01T18:10:44.862Z,52.90
2022-09-01T18:13:30.987Z,53.30
2022-09-01T18:16:18.128Z,53.30
2022-09-01T18:18:48.917Z,52.70
2022-09-01T18:21:20.406Z,52.70
2022-09-01T18:23:53.821Z,52.70
2022-09-01T18:26:27.208Z,52.80
2022-09-01T18:28:55.423Z,53.20
2022-09-01T18:31:51.150Z,53.10
2022-09-01T18:34:27.624Z,52.90
2022-09-01T18:37:04.186Z,53.40
2022-09-01T18:39:43.315Z,53.40
2022-09-01T18:42:17.386Z,53.70
2022-09-01T18:44:57.141Z,53.60
2022-09-01T18:47:31.659Z,54.10
2022-09-01T18:50:07.259Z,54.30
2022-09-01T18:52:56.848Z,54.30
2022-09-01T18:55:32.751Z,54.40
2022-09-01T18:58:06.834Z,54.10
2022-09-01T19:00:39.165Z,54.60
2022-09-01T19:03:19.062Z,54.40
2022-09-01T19:06:12.633Z,54.50
2022-09-01T19:08:53.731Z,54.90
2022-09-01T19:11:35.481Z,54.80
2022-09-01T19:14:14.495Z,54.80
2022-09-01T19:16:55.272Z,55.10
2022-09-01T19:19:37.367Z,55.20
2022-09-01T19:22:05.672Z,55.30
2022-09-01T19:24:39.081Z,55.50
2022-09-01T19:27:14.057Z,56.50
2022-09-01T19:29:47.834Z,57.40
2022-09-01T19:32:21.062Z,58.30
2022-09-01T19:34:53.350Z,58.70
2022-09-01T19:37:22.166Z,59.30
2022-09-01T19:39:54.221Z,59.50
2022-09-01T19:42:27.883Z,58.80
2022-09-01T19:45:06.874Z,59.10
2022-09-01T19:47:41.121Z,59.60
2022-09-01T19:50:17.607Z,59.50
2022-09-01T19:52:51.770Z,58.90
2022-09-01T19:55:29.127Z,60.10
2022-09-01T19:58:04.269Z,59.60
2022-09-01T20:00:50.755Z,59.30
2022-09-01T20:03:23.614Z,59.60
2022-09-01T20:05:55.370Z,60.20
2022-09-01T20:08:30.197Z,60.80
2022-09-01T20:11:03.104Z,60.60
2022-09-01T20:13:58.145Z,60.00
2022-09-01T20:16:31.389Z,60.40
2022-09-01T20:19:04.101Z,60.80
2022-09-01T20:21:37.979Z,60.70
2022-09-01T20:24:12.647Z,60.80
2022-09-01T20:26:48.514Z,59.80
2022-09-01T20:29:25.906Z,59.50
2022-09-01T20:31:59.503Z,59.30
2022-09-01T20:34:38.238Z,59.60
2022-09-01T20:37:11.782Z,59.50
2022-09-01T20:40:04.795Z,59.90
2022-09-01T20:42:45.377Z,59.60
2022-09-01T20:45:17.617Z,59.50
2022-09-01T20:47:50.306Z,59.50
2022-09-01T20:50:19.756Z,59.60
2022-09-01T20:53:05.305Z,59.80
2022-09-01T20:55:39.998Z,60.00
2022-09-01T20:58:16.110Z,60.40
2022-09-01T21:00:51.519Z,60.70
2022-09-01T21:03:33.752Z,60.60
2022-09-01T21:06:08.091Z,60.90
2022-09-01T21:08:44.110Z,61.00
2022-09-01T21:11:27.989Z,61.60
2022-09-01T21:14:14.242Z,61.50
2022-09-01T21:16:52.306Z,61.70
2022-09-01T21:19:27.559Z,61.90
2022-09-01T21:22:05.415Z,61.50
2022-09-01T21:24:33.834Z,60.60
2022-09-01T21:27:05.107Z,60.30
2022-09-01T21:29:47.653Z,60.50
